< < Back
Terminal Aerodrome Forecast


Current Version              Previous Versions:   1  2  3  4  5  6  7  8  9  

Terminal Aerodrome Forecast

425
FTUS42 KCHS 250537
TAFCHS
TAF
KCHS 250537Z 2506/2606 19004KT P6SM SCT120 BKN200
     FM251400 18008KT P6SM SCT035 BKN070
     FM251600 19013G19KT P6SM VCTS BKN035CB
     FM251800 19014G21KT 4SM TSRA SCT020 BKN035CB
     FM252200 22009KT 6SM -SHRA BKN035
     FM260000 22010KT P6SM SCT035 BKN120=

Latest METAR

333
SAUS80 KWBC 251800 RRA
MTRCHS
METAR KCHS 251756Z 19009KT 10SM FEW008 BKN017 OVC022 21/18 A2980 RMK AO2
RAE07 SLP090 P0000 60013 T02110178 10211 20172 56051


USA.gov is the U.S. government's official web portal to all federal, state and local government web resources and services.